Time;durP1;ratioP1;P1;durP2;ratioP2;P2;SDS_P1;SDS_P2;PMS_P1;PMS_P2;Temp;Humidity;BMP_temperature;BMP_pressure;BME280_temperature;BME280_humidity;BME280_pressure;Samples;Min_cycle;Max_cycle;Signal;HPM_P1;HPM_P2
2022/10/06 00:00:30;;;;;;;4.10;0.45;;;13.00;99.90;;;;;;4984220;28;20036;-81
2022/10/06 00:02:56;;;;;;;5.78;0.50;;;12.90;99.90;;;;;;4999339;28;20054;-80
2022/10/06 00:05:23;;;;;;;2.50;0.40;;;12.90;99.90;;;;;;4997453;28;20424;-81
2022/10/06 00:07:49;;;;;;;4.03;0.30;;;12.90;99.90;;;;;;4997405;28;20495;-81
2022/10/06 00:10:16;;;;;;;3.90;0.45;;;12.90;99.90;;;;;;5000756;28;20485;-81
2022/10/06 00:12:47;;;;;;;2.88;0.40;;;12.90;99.90;;;;;;5001346;28;20598;-81
2022/10/06 00:15:17;;;;;;;3.60;0.40;;;12.80;99.90;;;;;;5011535;28;20037;-81
2022/10/06 00:17:43;;;;;;;5.25;0.50;;;12.80;99.90;;;;;;4999356;28;20049;-81
2022/10/06 00:20:10;;;;;;;3.55;0.30;;;12.70;99.90;;;;;;5000966;28;20045;-80
2022/10/06 00:22:39;;;;;;;2.67;0.30;;;12.70;99.90;;;;;;4984876;28;20057;-81
2022/10/06 00:25:07;;;;;;;2.55;0.40;;;12.70;99.90;;;;;;5013761;28;20026;-80
2022/10/06 00:27:41;;;;;;;5.03;0.82;;;12.70;99.90;;;;;;4998172;28;20034;-80
2022/10/06 00:30:13;;;;;;;3.58;0.50;;;12.70;99.90;;;;;;4983285;28;20038;-80
2022/10/06 00:32:40;;;;;;;2.53;0.30;;;12.60;99.90;;;;;;5001875;28;20382;-80
2022/10/06 00:35:07;;;;;;;7.03;0.60;;;12.60;99.90;;;;;;4983932;28;20034;-80
2022/10/06 00:37:35;;;;;;;3.97;0.30;;;12.60;99.90;;;;;;4983337;28;20508;-80
2022/10/06 00:40:05;;;;;;;5.43;0.55;;;12.60;99.90;;;;;;4999403;28;20048;-80
2022/10/06 00:42:32;;;;;;;6.53;0.65;;;12.60;99.90;;;;;;4968178;28;20405;-79
2022/10/06 00:45:04;;;;;;;4.47;0.50;;;12.60;99.90;;;;;;4999474;28;20041;-79
2022/10/06 00:47:31;;;;;;;;;;;12.60;99.90;;;;;;4999454;28;20030;-80
2022/10/06 00:50:01;;;;;;;12.52;0.70;;;12.60;99.90;;;;;;5001019;28;19925;-80
2022/10/06 00:52:30;;;;;;;5.88;0.40;;;12.60;99.90;;;;;;4999047;28;20045;-80
2022/10/06 00:54:57;;;;;;;5.93;0.80;;;12.60;99.90;;;;;;5000268;28;20062;-80
2022/10/06 00:57:25;;;;;;;8.38;1.25;;;12.60;99.90;;;;;;4983460;28;20440;-79
2022/10/06 00:59:52;;;;;;;4.68;0.40;;;12.60;99.90;;;;;;4967132;28;20042;-80
2022/10/06 01:02:30;;;;;;;3.88;0.50;;;12.50;99.90;;;;;;5002558;28;20068;-80
2022/10/06 01:05:00;;;;;;;4.05;0.70;;;12.50;99.90;;;;;;4999029;28;20037;-80
2022/10/06 01:07:28;;;;;;;3.08;0.38;;;12.50;99.90;;;;;;4999177;28;20049;-80
2022/10/06 01:09:56;;;;;;;6.07;0.98;;;12.50;99.90;;;;;;4970403;28;20092;-81
2022/10/06 01:12:25;;;;;;;5.35;0.55;;;12.50;99.90;;;;;;5003275;28;20041;-81
2022/10/06 01:14:53;;;;;;;9.23;0.65;;;12.50;99.90;;;;;;4982944;28;20045;-81
2022/10/06 01:17:49;;;;;;;6.15;0.40;;;12.40;99.90;;;;;;4982766;28;20038;-80
2022/10/06 01:20:18;;;;;;;6.70;0.93;;;12.40;99.90;;;;;;4983235;28;20487;-80
2022/10/06 01:22:47;;;;;;;8.02;1.00;;;12.40;99.90;;;;;;5000323;28;20054;-80
2022/10/06 01:25:17;;;;;;;4.47;0.50;;;12.30;99.90;;;;;;5000923;28;21134;-80
2022/10/06 01:27:49;;;;;;;7.53;0.70;;;12.30;99.90;;;;;;4999015;28;20041;-79
2022/10/06 01:30:21;;;;;;;4.50;0.50;;;12.30;99.90;;;;;;4999666;28;20472;-80
2022/10/06 01:32:48;;;;;;;;;;;12.30;99.90;;;;;;4999359;28;20045;-80
2022/10/06 01:35:14;;;;;;;5.63;0.73;;;12.30;99.90;;;;;;4982857;28;19943;-80
2022/10/06 01:37:41;;;;;;;4.80;0.40;;;12.20;99.90;;;;;;5001381;28;20030;-80
2022/10/06 01:40:08;;;;;;;8.20;1.45;;;12.20;99.90;;;;;;5019181;28;20041;-80
2022/10/06 01:42:35;;;;;;;5.55;0.30;;;12.20;99.90;;;;;;4994682;28;20037;-80
2022/10/06 01:45:04;;;;;;;4.00;0.40;;;12.10;99.90;;;;;;5018069;28;20049;-80
2022/10/06 01:47:30;;;;;;;5.10;0.50;;;12.10;99.90;;;;;;5005868;28;20033;-80
2022/10/06 01:49:56;;;;;;;3.63;0.40;;;12.10;99.90;;;;;;5003725;28;20046;-80
2022/10/06 01:52:23;;;;;;;5.70;0.50;;;12.00;99.90;;;;;;4987914;28;20506;-81
2022/10/06 01:54:49;;;;;;;8.05;0.60;;;12.00;99.90;;;;;;5001684;28;20363;-80
2022/10/06 01:57:15;;;;;;;5.85;0.50;;;12.00;99.90;;;;;;5003257;28;20033;-80
2022/10/06 01:59:42;;;;;;;7.47;0.98;;;12.10;99.90;;;;;;5002894;28;20041;-79
2022/10/06 02:02:09;;;;;;;6.38;0.50;;;12.10;99.90;;;;;;5002667;28;20078;-80
2022/10/06 02:04:35;;;;;;;3.83;0.40;;;12.10;99.90;;;;;;4986109;28;20377;-79
2022/10/06 02:07:03;;;;;;;5.60;0.82;;;12.10;99.90;;;;;;4998869;28;20048;-79
2022/10/06 02:09:38;;;;;;;5.82;0.50;;;12.10;99.90;;;;;;4995184;28;20038;-80
2022/10/06 02:12:05;;;;;;;5.80;0.60;;;12.00;99.90;;;;;;5011472;28;20459;-80
2022/10/06 02:14:33;;;;;;;9.63;0.70;;;12.00;99.90;;;;;;5004584;28;20034;-79
2022/10/06 02:16:59;;;;;;;5.63;0.50;;;12.00;99.90;;;;;;5005655;28;20034;-80
2022/10/06 02:19:26;;;;;;;2.65;0.50;;;11.90;99.90;;;;;;5019463;28;20045;-80
2022/10/06 02:21:52;;;;;;;12.75;0.90;;;11.90;99.90;;;;;;4987207;28;20039;-80
2022/10/06 02:24:18;;;;;;;4.20;0.50;;;11.90;99.90;;;;;;5003596;28;20049;-80
2022/10/06 02:26:45;;;;;;;8.70;0.70;;;11.80;99.90;;;;;;5001328;28;20468;-80
2022/10/06 02:29:11;;;;;;;3.72;0.40;;;11.80;99.90;;;;;;4985866;28;20038;-80
2022/10/06 02:31:38;;;;;;;6.40;0.80;;;11.80;99.90;;;;;;5001314;28;20029;-80
2022/10/06 02:34:05;;;;;;;4.63;0.55;;;11.70;99.90;;;;;;5005221;28;20048;-80
2022/10/06 02:36:31;;;;;;;4.03;0.50;;;11.70;99.90;;;;;;4988621;28;20034;-80
2022/10/06 02:38:58;;;;;;;4.88;0.63;;;11.70;99.90;;;;;;5001015;28;20056;-80
2022/10/06 02:41:24;;;;;;;7.90;1.08;;;11.70;99.90;;;;;;5003108;28;20049;-81
2022/10/06 02:43:52;;;;;;;7.03;0.80;;;11.60;99.90;;;;;;4985873;28;20042;-80
2022/10/06 02:46:18;;;;;;;5.65;0.50;;;11.60;99.90;;;;;;5016712;28;20025;-81
2022/10/06 02:48:50;;;;;;;6.78;0.60;;;11.60;99.90;;;;;;4984624;28;20053;-81
2022/10/06 02:51:19;;;;;;;3.63;0.40;;;11.60;99.90;;;;;;5018052;28;20034;-80
2022/10/06 02:53:49;;;;;;;4.97;0.50;;;11.50;99.90;;;;;;5001237;28;20393;-80
2022/10/06 02:56:22;;;;;;;6.20;0.70;;;11.50;99.90;;;;;;4999081;28;20049;-81
2022/10/06 02:58:50;;;;;;;4.50;0.80;;;11.50;99.90;;;;;;5000432;28;20113;-81
2022/10/06 03:01:24;;;;;;;6.30;0.50;;;11.40;99.90;;;;;;4986556;28;20073;-81
2022/10/06 03:03:53;;;;;;;5.10;0.40;;;11.40;99.90;;;;;;4985828;28;20042;-80
2022/10/06 03:06:25;;;;;;;7.40;1.02;;;11.40;99.90;;;;;;5015203;28;20038;-80
2022/10/06 03:09:00;;;;;;;9.05;0.93;;;11.30;99.90;;;;;;4984765;28;20604;-81
2022/10/06 03:11:29;;;;;;;;;;;11.30;99.90;;;;;;5017096;28;20034;-81
2022/10/06 03:13:56;;;;;;;10.32;0.93;;;11.20;99.90;;;;;;5015411;28;19944;-81
2022/10/06 03:16:24;;;;;;;7.28;0.50;;;11.20;99.90;;;;;;5016145;28;20049;-80
2022/10/06 03:18:52;;;;;;;5.57;0.60;;;11.20;99.90;;;;;;4983689;28;20068;-80
2022/10/06 03:21:22;;;;;;;6.63;0.50;;;11.20;99.90;;;;;;4985735;28;20426;-81
2022/10/06 03:23:50;;;;;;;6.13;0.50;;;11.20;99.90;;;;;;5002056;28;20039;-81
2022/10/06 03:26:20;;;;;;;5.30;0.70;;;11.10;99.90;;;;;;5004150;28;20038;-80
2022/10/06 03:28:47;;;;;;;4.75;0.52;;;11.10;99.90;;;;;;4987459;28;20061;-80
2022/10/06 03:31:14;;;;;;;6.35;0.52;;;11.10;99.90;;;;;;5001538;28;20400;-80
2022/10/06 03:33:41;;;;;;;7.60;1.13;;;11.10;99.90;;;;;;4985505;28;20491;-81
2022/10/06 03:36:14;;;;;;;6.05;0.60;;;11.10;99.90;;;;;;5000357;28;20408;-80
2022/10/06 03:38:42;;;;;;;10.75;0.60;;;11.00;99.90;;;;;;4983521;28;20030;-80
2022/10/06 03:41:10;;;;;;;5.55;0.50;;;11.00;99.90;;;;;;4985205;28;20491;-80
2022/10/06 03:43:37;;;;;;;7.43;0.63;;;11.00;99.90;;;;;;5000750;28;20049;-80
2022/10/06 03:46:05;;;;;;;8.65;0.50;;;11.00;99.90;;;;;;4984338;28;20437;-79
2022/10/06 03:48:33;;;;;;;6.38;0.60;;;10.90;99.90;;;;;;4987792;28;20412;-80
2022/10/06 03:51:22;;;;;;;4.78;0.40;;;11.00;99.90;;;;;;5000803;28;20045;-80
2022/10/06 03:53:50;;;;;;;5.25;0.50;;;10.90;99.90;;;;;;5001248;28;20038;-80
2022/10/06 03:56:23;;;;;;;6.43;0.60;;;10.90;99.90;;;;;;4999715;28;20402;-80
2022/10/06 03:58:52;;;;;;;5.72;0.60;;;10.90;99.90;;;;;;4999370;28;20056;-80
2022/10/06 04:01:26;;;;;;;6.03;0.95;;;10.90;99.90;;;;;;5014398;28;20061;-80
2022/10/06 04:03:57;;;;;;;7.03;0.82;;;10.90;99.90;;;;;;5000654;28;20507;-80
2022/10/06 04:06:25;;;;;;;4.68;0.40;;;10.90;99.90;;;;;;4987996;28;20038;-80
2022/10/06 04:08:53;;;;;;;5.47;0.77;;;10.90;99.90;;;;;;4983242;28;20349;-81
2022/10/06 04:11:25;;;;;;;4.07;0.90;;;10.90;99.90;;;;;;5014287;28;20049;-80
2022/10/06 04:14:14;;;;;;;6.90;1.20;;;10.90;99.90;;;;;;4984455;28;20041;-81
2022/10/06 04:16:46;;;;;;;6.00;0.50;;;10.90;99.90;;;;;;5003768;28;20048;-80
2022/10/06 04:19:15;;;;;;;8.73;0.70;;;10.80;99.90;;;;;;4984335;28;20037;-80
2022/10/06 04:21:46;;;;;;;3.75;0.45;;;10.80;99.90;;;;;;4985303;28;20041;-81
2022/10/06 04:24:17;;;;;;;4.28;0.40;;;10.80;99.90;;;;;;5000519;28;20058;-81
2022/10/06 04:26:45;;;;;;;9.25;0.60;;;10.80;99.90;;;;;;4983732;28;20041;-80
2022/10/06 04:29:13;;;;;;;6.10;0.40;;;10.70;99.90;;;;;;5003142;28;20034;-81
2022/10/06 04:31:41;;;;;;;9.13;1.10;;;10.70;99.90;;;;;;4984337;28;20037;-80
2022/10/06 04:34:12;;;;;;;4.07;0.47;;;10.70;99.90;;;;;;5000271;28;20042;-81
2022/10/06 04:36:41;;;;;;;4.25;0.47;;;10.70;99.90;;;;;;4998965;28;20378;-81
2022/10/06 04:39:11;;;;;;;7.43;0.60;;;10.60;99.90;;;;;;4998864;28;20033;-81
2022/10/06 04:41:40;;;;;;;6.75;0.50;;;10.60;99.90;;;;;;5000545;28;20034;-80
2022/10/06 04:44:09;;;;;;;6.85;0.70;;;10.50;99.90;;;;;;4983142;28;20045;-81
2022/10/06 04:46:35;;;;;;;4.78;0.65;;;10.50;99.90;;;;;;4987275;28;20030;-81
2022/10/06 04:49:03;;;;;;;6.35;0.68;;;10.50;99.90;;;;;;4998815;28;20050;-82
2022/10/06 04:51:31;;;;;;;4.57;0.50;;;10.50;99.90;;;;;;5000807;28;20408;-82
2022/10/06 04:53:59;;;;;;;10.20;0.70;;;10.50;99.90;;;;;;5000331;28;20033;-81
2022/10/06 04:56:30;;;;;;;4.70;0.77;;;10.40;99.90;;;;;;4981255;28;20038;-82
2022/10/06 04:58:59;;;;;;;10.07;1.20;;;10.50;99.90;;;;;;4982393;28;20037;-81
2022/10/06 05:01:25;;;;;;;5.80;0.57;;;10.50;99.90;;;;;;4999628;28;20409;-82
2022/10/06 05:03:57;;;;;;;5.35;0.60;;;10.40;99.90;;;;;;4967381;28;20113;-82
2022/10/06 05:06:30;;;;;;;11.48;0.95;;;10.40;99.90;;;;;;5004632;28;20045;-82
2022/10/06 05:09:04;;;;;;;7.20;0.70;;;10.40;99.90;;;;;;4982898;28;20041;-82
2022/10/06 05:11:32;;;;;;;8.48;0.60;;;10.40;99.90;;;;;;4989262;28;20046;-82
2022/10/06 05:13:59;;;;;;;6.97;0.52;;;10.40;99.90;;;;;;4999600;28;20049;-82
2022/10/06 05:16:29;;;;;;;5.93;0.55;;;10.40;99.90;;;;;;4971403;28;20057;-81
2022/10/06 05:18:56;;;;;;;3.55;0.40;;;10.30;99.90;;;;;;5000499;28;20037;-82
2022/10/06 05:21:28;;;;;;;7.32;0.70;;;10.30;99.90;;;;;;5000060;28;20042;-82
2022/10/06 05:23:57;;;;;;;7.10;0.93;;;10.30;99.90;;;;;;5000382;28;20033;-82
2022/10/06 05:26:27;;;;;;;7.38;0.70;;;10.20;99.90;;;;;;5000903;28;20053;-81
2022/10/06 05:28:54;;;;;;;8.25;0.55;;;10.20;99.90;;;;;;5005667;28;20038;-82
2022/10/06 05:31:27;;;;;;;6.60;0.50;;;10.20;99.90;;;;;;5007741;28;20033;-81
2022/10/06 05:33:56;;;;;;;6.03;1.02;;;10.20;99.90;;;;;;5002807;28;20037;-81
2022/10/06 05:36:25;;;;;;;5.22;0.90;;;10.10;99.90;;;;;;5000528;28;20412;-82
2022/10/06 05:38:53;;;;;;;3.95;0.50;;;10.10;99.90;;;;;;4982996;28;20061;-82
2022/10/06 05:41:25;;;;;;;6.28;0.60;;;10.10;99.90;;;;;;5000642;28;20046;-82
2022/10/06 05:43:52;;;;;;;7.88;0.52;;;10.00;99.90;;;;;;4983475;28;20045;-81
2022/10/06 05:46:23;;;;;;;3.30;0.30;;;10.00;99.90;;;;;;4982682;28;20029;-81
2022/10/06 05:48:54;;;;;;;4.15;0.30;;;10.00;99.90;;;;;;5013314;28;20606;-81
2022/10/06 05:51:24;;;;;;;3.20;0.40;;;10.00;99.90;;;;;;4988039;28;20054;-81
2022/10/06 05:53:51;;;;;;;5.85;0.90;;;9.90;99.90;;;;;;4998895;28;20389;-82
2022/10/06 05:56:18;;;;;;;5.35;0.40;;;9.90;99.90;;;;;;5013961;28;20037;-81
2022/10/06 05:58:47;;;;;;;3.63;0.40;;;9.90;99.90;;;;;;4981432;28;20480;-81
2022/10/06 06:01:19;;;;;;;4.25;0.52;;;9.90;99.90;;;;;;5002054;28;20065;-79
2022/10/06 06:03:50;;;;;;;5.40;0.93;;;9.90;99.90;;;;;;4982657;28;20118;-81
2022/10/06 06:06:17;;;;;;;4.70;0.50;;;10.00;99.90;;;;;;4982874;28;20041;-80
2022/10/06 06:08:44;;;;;;;6.60;0.50;;;10.00;99.90;;;;;;4996406;28;20037;-78
2022/10/06 06:11:11;;;;;;;6.05;0.70;;;10.00;99.90;;;;;;4997359;28;20038;-79
2022/10/06 06:13:38;;;;;;;7.30;0.80;;;10.00;99.90;;;;;;4999611;28;20433;-78
2022/10/06 06:16:14;;;;;;;9.73;0.88;;;10.00;99.90;;;;;;4992938;28;20026;-79
2022/10/06 06:18:40;;;;;;;5.07;0.70;;;10.10;99.90;;;;;;4966037;28;20129;-80
2022/10/06 06:21:09;;;;;;;9.80;1.00;;;10.10;99.90;;;;;;4999424;28;20036;-81
2022/10/06 06:23:45;;;;;;;6.00;0.90;;;10.10;99.90;;;;;;4995333;28;20032;-77
2022/10/06 06:26:24;;;;;;;8.57;2.45;;;10.20;99.90;;;;;;5001896;28;20501;-78
2022/10/06 06:28:53;;;;;;;8.43;1.00;;;10.30;99.90;;;;;;5000781;28;20037;-77
2022/10/06 06:31:21;;;;;;;10.45;1.48;;;10.30;99.90;;;;;;4985425;28;20045;-79
2022/10/06 06:33:51;;;;;;;8.80;1.00;;;10.40;99.90;;;;;;5000750;28;20042;-79
2022/10/06 06:36:34;;;;;;;9.13;0.90;;;10.40;99.90;;;;;;4986016;28;20464;-81
2022/10/06 06:39:02;;;;;;;;;;;10.50;99.90;;;;;;5016009;28;20034;-81
2022/10/06 06:41:33;;;;;;;8.27;0.77;;;10.50;99.90;;;;;;4984356;28;19925;-80
2022/10/06 06:44:12;;;;;;;7.72;0.75;;;10.60;99.90;;;;;;5001426;28;20034;-80
2022/10/06 06:46:48;;;;;;;9.50;0.90;;;10.60;99.90;;;;;;4985980;28;20481;-80
2022/10/06 06:49:19;;;;;;;11.27;1.00;;;10.70;99.90;;;;;;5000547;28;20037;-80
2022/10/06 06:51:50;;;;;;;;;;;10.80;99.90;;;;;;4986988;28;20300;-80
2022/10/06 06:54:18;;;;;;;8.38;0.98;;;10.80;99.90;;;;;;5001418;28;19914;-80
2022/10/06 06:56:48;;;;;;;6.35;0.65;;;10.90;99.90;;;;;;5001645;28;20052;-80
2022/10/06 06:59:19;;;;;;;9.30;1.10;;;10.90;99.90;;;;;;5001770;28;20057;-80
2022/10/06 07:01:47;;;;;;;13.57;1.10;;;11.00;99.90;;;;;;4988008;28;20054;-79
2022/10/06 07:04:17;;;;;;;6.72;1.52;;;11.10;99.90;;;;;;4986620;28;20026;-79
2022/10/06 07:06:57;;;;;;;7.20;0.85;;;11.20;99.90;;;;;;4986333;28;20037;-79
2022/10/06 07:09:26;;;;;;;7.82;0.73;;;11.20;99.90;;;;;;4985041;28;20042;-80
2022/10/06 07:11:58;;;;;;;10.50;1.35;;;11.30;99.90;;;;;;5001870;28;20038;-79
2022/10/06 07:14:24;;;;;;;9.23;1.30;;;11.30;99.90;;;;;;5002574;28;20065;-80
2022/10/06 07:25:20;;;;;;;12.73;1.27;;;11.60;99.90;;;;;;5001208;28;20495;-81
2022/10/06 07:27:52;;;;;;;11.35;1.58;;;11.60;99.90;;;;;;5001595;28;20040;-81
2022/10/06 07:30:32;;;;;;;15.95;1.45;;;11.70;99.90;;;;;;5017537;28;20057;-81
2022/10/06 07:33:04;;;;;;;5.90;1.35;;;11.80;99.90;;;;;;4985196;28;20525;-81
2022/10/06 07:35:31;;;;;;;7.75;0.90;;;11.90;99.90;;;;;;4988316;28;20033;-81
2022/10/06 07:38:06;;;;;;;7.95;1.35;;;11.90;99.90;;;;;;5000838;28;20033;-81
2022/10/06 07:40:34;;;;;;;8.88;0.93;;;12.00;99.90;;;;;;4988248;28;20041;-81
2022/10/06 07:43:01;;;;;;;11.63;1.67;;;12.10;99.90;;;;;;5004267;28;20417;-81
2022/10/06 07:45:48;;;;;;;10.75;2.10;;;12.10;99.90;;;;;;5002455;28;20050;-81
2022/10/06 07:48:23;;;;;;;11.70;1.50;;;12.20;99.90;;;;;;5015913;28;20046;-82
2022/10/06 07:50:56;;;;;;;;;;;12.20;99.90;;;;;;5001730;28;20042;-80
2022/10/06 07:53:27;;;;;;;11.20;1.13;;;12.30;99.90;;;;;;5002319;28;19918;-80
2022/10/06 07:56:04;;;;;;;9.73;1.80;;;12.40;99.90;;;;;;5001919;28;20045;-80
2022/10/06 07:58:33;;;;;;;12.00;1.38;;;12.40;99.90;;;;;;5000896;28;20412;-79
2022/10/06 08:01:05;;;;;;;10.18;1.33;;;12.50;99.90;;;;;;5016075;28;20080;-80
2022/10/06 08:03:32;;;;;;;13.15;1.70;;;12.50;99.90;;;;;;4986439;28;20038;-79
2022/10/06 08:06:00;;;;;;;10.65;2.17;;;12.60;99.90;;;;;;4989255;28;20521;-78
2022/10/06 08:08:30;;;;;;;11.27;1.77;;;12.60;99.90;;;;;;4971970;28;20041;-78
2022/10/06 08:10:58;;;;;;;12.60;1.40;;;12.70;99.90;;;;;;4969380;28;20037;-77
2022/10/06 08:13:25;;;;;;;19.33;2.72;;;12.80;99.90;;;;;;4969316;28;20044;-79
2022/10/06 08:15:53;;;;;;;8.48;1.52;;;12.80;99.90;;;;;;4967728;28;20049;-77
2022/10/06 08:18:20;;;;;;;11.73;2.50;;;12.90;99.90;;;;;;4965403;28;20030;-80
2022/10/06 08:20:46;;;;;;;8.10;1.30;;;13.00;99.90;;;;;;4965082;28;20034;-79
2022/10/06 08:23:13;;;;;;;8.23;1.58;;;13.00;99.90;;;;;;4981516;28;20038;-79
2022/10/06 08:25:42;;;;;;;9.38;1.15;;;13.10;99.90;;;;;;4968174;28;20038;-79
2022/10/06 08:28:09;;;;;;;12.07;1.80;;;13.10;99.90;;;;;;4975953;28;20026;-79
2022/10/06 08:30:36;;;;;;;9.32;1.02;;;13.20;99.90;;;;;;4983232;28;20042;-79
2022/10/06 08:33:03;;;;;;;11.60;1.65;;;13.30;99.90;;;;;;4983398;28;20038;-80
2022/10/06 08:35:30;;;;;;;5.63;1.35;;;13.30;99.90;;;;;;4977824;28;20046;-79
2022/10/06 08:37:56;;;;;;;7.60;1.13;;;13.40;99.90;;;;;;4987135;28;20045;-79
2022/10/06 08:40:24;;;;;;;17.05;2.35;;;13.50;99.90;;;;;;4969709;28;20042;-80
2022/10/06 08:42:54;;;;;;;6.20;0.90;;;13.60;99.90;;;;;;4985105;28;20026;-80
2022/10/06 08:45:28;;;;;;;7.40;1.00;;;13.70;99.90;;;;;;4983173;28;20060;-79
2022/10/06 08:48:18;;;;;;;11.25;1.98;;;13.80;99.90;;;;;;4984254;28;20049;-80
2022/10/06 08:51:06;;;;;;;7.88;1.10;;;13.90;99.90;;;;;;4981095;28;20064;-79
2022/10/06 08:53:38;;;;;;;6.60;1.15;;;14.00;99.90;;;;;;4975475;28;20500;-80
2022/10/06 08:56:17;;;;;;;8.63;1.42;;;14.10;99.90;;;;;;4977325;28;20035;-79
2022/10/06 08:58:57;;;;;;;10.80;1.05;;;14.10;99.90;;;;;;4966384;28;20382;-80
2022/10/06 09:01:42;;;;;;;8.90;0.80;;;14.30;99.90;;;;;;4970881;28;20061;-80
2022/10/06 09:04:12;;;;;;;8.13;0.70;;;14.30;99.90;;;;;;4998742;28;20496;-79
2022/10/06 09:07:14;;;;;;;7.53;0.98;;;14.40;99.90;;;;;;4999789;28;20037;-79
2022/10/06 09:10:18;;;;;;;10.30;1.00;;;14.60;99.90;;;;;;4978320;28;20038;-79
2022/10/06 09:12:56;;;;;;;7.80;0.77;;;14.70;99.90;;;;;;4996726;28;20037;-79
2022/10/06 09:15:39;;;;;;;5.63;0.55;;;14.70;99.90;;;;;;4991388;28;20049;-81
2022/10/06 09:18:09;;;;;;;10.35;1.35;;;14.80;99.90;;;;;;4981119;28;21033;-79
2022/10/06 09:20:45;;;;;;;7.28;0.65;;;14.90;99.90;;;;;;4980830;28;20053;-79
2022/10/06 09:23:15;;;;;;;9.55;1.27;;;14.90;99.90;;;;;;4995772;28;20038;-80
2022/10/06 09:25:42;;;;;;;7.13;1.00;;;15.00;99.90;;;;;;5001481;28;20034;-79
2022/10/06 09:28:14;;;;;;;4.07;0.70;;;15.10;99.90;;;;;;4983160;28;20041;-80
2022/10/06 09:30:41;;;;;;;;;;;15.20;99.90;;;;;;4984484;28;20034;-78
2022/10/06 09:33:19;;;;;;;11.20;0.82;;;15.30;99.90;;;;;;4996804;28;19917;-79
2022/10/06 09:36:09;;;;;;;7.15;0.82;;;15.40;99.90;;;;;;4998304;28;20046;-79
2022/10/06 09:38:47;;;;;;;6.93;1.08;;;15.50;99.90;;;;;;4999160;28;20835;-79
2022/10/06 09:41:15;;;;;;;7.00;0.98;;;15.60;99.90;;;;;;4997736;28;20034;-78
2022/10/06 09:43:54;;;;;;;8.98;1.10;;;15.60;99.90;;;;;;4999833;28;20048;-79
2022/10/06 09:46:40;;;;;;;9.90;1.15;;;15.60;99.90;;;;;;4997755;28;20030;-79
2022/10/06 09:49:17;;;;;;;4.78;0.60;;;15.70;99.90;;;;;;4995778;28;20041;-79
2022/10/06 09:52:17;;;;;;;4.70;0.60;;;15.80;99.90;;;;;;4996737;28;20034;-79
2022/10/06 09:54:43;;;;;;;6.45;0.50;;;16.00;99.90;;;;;;4999501;28;20037;-79
2022/10/06 09:57:30;;;;;;;6.88;0.77;;;16.10;99.90;;;;;;5013980;28;20091;-79
2022/10/06 09:59:58;;;;;;;6.93;0.70;;;16.40;99.90;;;;;;5018285;28;20040;-80
2022/10/06 10:02:30;;;;;;;6.30;0.60;;;16.60;99.90;;;;;;4981641;28;20058;-79
2022/10/06 10:04:57;;;;;;;7.38;0.77;;;16.90;99.90;;;;;;4985228;28;20043;-80
2022/10/06 10:07:28;;;;;;;6.97;0.77;;;17.20;99.90;;;;;;4970917;28;20052;-85
2022/10/06 10:10:23;;;;;;;4.97;0.40;;;17.60;99.90;;;;;;4987339;28;20038;-78
2022/10/06 10:12:49;;;;;;;7.25;1.40;;;18.00;99.90;;;;;;4971654;28;20049;-78
2022/10/06 10:15:18;;;;;;;7.55;0.82;;;18.40;99.90;;;;;;4955663;28;20398;-78
2022/10/06 10:18:09;;;;;;;5.72;0.75;;;18.70;99.90;;;;;;4968421;28;20049;-77
2022/10/06 10:20:39;;;;;;;10.95;0.80;;;19.00;99.90;;;;;;4968228;28;20053;-79
2022/10/06 10:23:22;;;;;;;5.88;0.60;;;18.80;99.90;;;;;;4970091;28;20038;-77
2022/10/06 10:25:52;;;;;;;7.22;0.60;;;18.60;99.90;;;;;;4986839;28;20038;-78
2022/10/06 10:28:41;;;;;;;3.95;0.65;;;18.50;99.90;;;;;;4984999;28;20045;-80
2022/10/06 10:31:13;;;;;;;5.28;0.90;;;18.80;99.90;;;;;;4966669;28;20057;-77
2022/10/06 10:33:49;;;;;;;4.63;1.00;;;19.10;99.90;;;;;;4987549;28;20029;-81
2022/10/06 10:36:16;;;;;;;6.22;0.60;;;19.40;99.90;;;;;;4988425;28;20037;-81
2022/10/06 10:38:45;;;;;;;5.97;0.80;;;19.90;99.90;;;;;;4966407;28;20035;-81
2022/10/06 10:41:18;;;;;;;5.80;0.90;;;20.20;99.90;;;;;;4977360;28;20053;-80
2022/10/06 10:44:22;;;;;;;4.78;0.50;;;20.50;99.90;;;;;;4984045;28;20034;-79
2022/10/06 10:46:53;;;;;;;4.07;0.85;;;20.70;99.90;;;;;;4964019;28;20046;-80
2022/10/06 10:49:27;;;;;;;5.63;0.82;;;20.50;99.90;;;;;;4986495;28;20062;-80
2022/10/06 10:52:05;;;;;;;4.40;0.77;;;20.10;99.90;;;;;;4991139;28;20042;-80
2022/10/06 10:54:53;;;;;;;7.30;0.60;;;20.30;99.90;;;;;;4970514;28;20046;-81
2022/10/06 10:57:24;;;;;;;4.90;0.60;;;20.60;99.90;;;;;;4972953;28;20386;-80
2022/10/06 10:59:59;;;;;;;4.28;0.60;;;20.30;99.30;;;;;;4973716;28;20448;-81
2022/10/06 11:02:27;;;;;;;5.05;0.95;;;19.70;99.60;;;;;;4991085;28;20061;-81
2022/10/06 11:05:01;;;;;;;3.65;0.50;;;19.50;99.90;;;;;;4997078;28;20038;-81
2022/10/06 11:07:37;;;;;;;5.70;0.60;;;19.60;99.90;;;;;;5000061;28;20385;-82
2022/10/06 11:10:09;;;;;;;6.65;0.70;;;20.30;99.90;;;;;;4985670;28;20041;-82
2022/10/06 11:12:48;;;;;;;8.75;0.63;;;20.90;99.10;;;;;;5003235;28;20491;-82
2022/10/06 11:15:45;;;;;;;4.30;0.55;;;21.40;98.40;;;;;;5001812;28;20042;-81
2022/10/06 11:18:23;;;;;;;11.80;4.78;;;22.00;97.50;;;;;;5002858;28;20030;-81
2022/10/06 11:21:00;;;;;;;9.70;0.95;;;22.10;95.90;;;;;;5000080;28;20030;-81
2022/10/06 11:23:40;;;;;;;2.95;0.88;;;21.70;95.10;;;;;;5014492;28;20038;-79
2022/10/06 11:26:39;;;;;;;5.47;0.88;;;21.00;95.10;;;;;;5002648;28;20600;-79
2022/10/06 11:29:23;;;;;;;4.72;0.50;;;20.40;95.50;;;;;;4973590;28;20038;-79
2022/10/06 11:32:04;;;;;;;3.45;0.70;;;20.00;95.90;;;;;;4998186;28;20038;-79
2022/10/06 11:34:31;;;;;;;9.80;1.90;;;19.80;96.50;;;;;;5001440;28;20046;-82
2022/10/06 11:37:12;;;;;;;4.40;0.82;;;19.50;96.10;;;;;;4985169;28;20556;-82
2022/10/06 11:40:04;;;;;;;3.72;0.68;;;19.30;96.30;;;;;;5016289;28;20052;-80
2022/10/06 11:42:36;;;;;;;3.45;0.60;;;19.00;96.20;;;;;;5003548;28;20398;-82
2022/10/06 11:45:13;;;;;;;5.35;0.60;;;19.00;96.60;;;;;;5001850;28;20053;-82
2022/10/06 11:48:09;;;;;;;2.65;0.38;;;19.70;97.00;;;;;;4985044;28;20033;-81
2022/10/06 11:50:41;;;;;;;8.40;1.70;;;21.00;96.40;;;;;;4997937;28;20041;-81
2022/10/06 11:53:39;;;;;;;4.03;0.50;;;22.30;94.50;;;;;;4988421;28;20409;-81
2022/10/06 11:56:17;;;;;;;3.83;0.57;;;23.40;92.90;;;;;;4992861;28;20064;-80
2022/10/06 11:58:49;;;;;;;4.90;0.65;;;24.10;91.80;;;;;;4998553;28;20033;-80
2022/10/06 12:01:35;;;;;;;4.40;0.82;;;24.70;90.80;;;;;;4998479;28;20057;-80
2022/10/06 12:04:07;;;;;;;4.10;0.50;;;25.30;89.60;;;;;;4986537;28;20042;-80
2022/10/06 12:06:45;;;;;;;4.60;0.60;;;25.90;86.00;;;;;;4969229;28;20072;-80
2022/10/06 12:09:44;;;;;;;4.28;0.80;;;25.50;84.00;;;;;;4996877;28;20053;-78
2022/10/06 12:12:14;;;;;;;5.18;0.80;;;24.30;83.80;;;;;;5003183;28;20034;-78
2022/10/06 12:14:47;;;;;;;4.35;0.80;;;23.20;85.00;;;;;;5017232;28;20034;-79
2022/10/06 12:17:18;;;;;;;3.97;0.60;;;22.70;86.90;;;;;;4999685;28;20512;-78
2022/10/06 12:19:51;;;;;;;3.45;0.70;;;23.30;87.50;;;;;;4988473;28;20516;-79
2022/10/06 12:22:30;;;;;;;5.35;0.52;;;24.30;86.20;;;;;;4985133;28;20045;-78
2022/10/06 12:25:01;;;;;;;5.25;1.15;;;25.10;82.50;;;;;;5017191;28;20034;-78
2022/10/06 12:27:41;;;;;;;6.07;0.70;;;25.80;79.10;;;;;;4994370;28;20038;-79
2022/10/06 12:30:22;;;;;;;4.38;0.63;;;26.20;76.60;;;;;;4984867;28;20042;-78
2022/10/06 12:32:52;;;;;;;4.55;2.47;;;26.60;74.10;;;;;;5016025;28;20042;-78
2022/10/06 12:35:41;;;;;;;9.27;4.15;;;26.80;73.90;;;;;;5016417;28;20026;-77
2022/10/06 12:38:30;;;;;;;5.72;1.70;;;27.20;72.70;;;;;;4999799;28;20392;-77
2022/10/06 12:40:56;;;;;;;6.97;1.98;;;27.50;70.60;;;;;;4998234;28;20704;-77
2022/10/06 12:43:22;;;;;;;5.55;1.20;;;26.60;70.10;;;;;;5000240;28;20517;-76
2022/10/06 12:45:59;;;;;;;4.38;0.73;;;25.60;71.00;;;;;;5000468;28;20041;-76
2022/10/06 12:48:36;;;;;;;4.30;1.00;;;24.40;72.10;;;;;;4999008;28;20407;-76
2022/10/06 12:51:17;;;;;;;3.50;0.70;;;23.40;73.80;;;;;;4998451;28;20045;-76
2022/10/06 12:53:51;;;;;;;5.57;0.90;;;22.60;75.90;;;;;;5002033;28;20516;-75
2022/10/06 12:56:36;;;;;;;2.53;0.55;;;21.90;77.70;;;;;;5013579;28;20030;-76
2022/10/06 12:59:24;;;;;;;2.80;0.52;;;21.30;79.20;;;;;;5013155;28;20042;-76
2022/10/06 13:02:17;;;;;;;3.78;0.60;;;20.90;80.80;;;;;;5002949;28;20057;-75
2022/10/06 13:04:46;;;;;;;9.65;1.08;;;21.00;82.30;;;;;;4971315;28;20072;-76
2022/10/06 13:07:15;;;;;;;7.57;0.60;;;21.80;81.10;;;;;;4998915;28;20052;-75
2022/10/06 13:09:42;;;;;;;3.05;0.50;;;21.60;80.20;;;;;;5015774;28;20037;-76
2022/10/06 13:12:26;;;;;;;5.60;0.50;;;21.00;81.60;;;;;;5000723;28;20038;-76
2022/10/06 13:15:11;;;;;;;5.18;0.50;;;20.30;82.60;;;;;;4998946;28;20033;-76
2022/10/06 13:18:13;;;;;;;4.05;0.60;;;19.80;84.20;;;;;;4997316;28;20066;-74
2022/10/06 13:20:51;;;;;;;3.33;0.40;;;19.30;85.10;;;;;;5001940;28;20042;-75
2022/10/06 13:23:32;;;;;;;4.22;0.82;;;18.90;86.20;;;;;;5001898;28;20034;-76